sensor_id;sensor_type;location;lat;lon;timestamp;pressure;altitude;pressure_sealevel;temperature;humidity
62864;BME280;48954;59.950;11.014;2023-01-31T00:03:35;98494.56;;;-0.87;53.28
62864;BME280;48954;59.950;11.014;2023-01-31T00:06:12;98493.41;;;-0.88;53.20
62864;BME280;48954;59.950;11.014;2023-01-31T00:08:38;98499.13;;;-0.91;53.37
62864;BME280;48954;59.950;11.014;2023-01-31T00:11:04;98504.34;;;-1.00;53.55
62864;BME280;48954;59.950;11.014;2023-01-31T00:13:30;98506.79;;;-1.12;53.64
62864;BME280;48954;59.950;11.014;2023-01-31T00:15:56;98513.15;;;-1.27;53.84
62864;BME280;48954;59.950;11.014;2023-01-31T00:18:22;98516.87;;;-1.45;54.12
62864;BME280;48954;59.950;11.014;2023-01-31T00:20:48;98514.79;;;-1.62;54.44
62864;BME280;48954;59.950;11.014;2023-01-31T00:23:14;98512.34;;;-1.76;54.47
62864;BME280;48954;59.950;11.014;2023-01-31T00:25:40;98508.32;;;-1.87;54.69
62864;BME280;48954;59.950;11.014;2023-01-31T00:28:06;98504.30;;;-1.95;54.79
62864;BME280;48954;59.950;11.014;2023-01-31T00:30:31;98505.69;;;-2.01;55.11
62864;BME280;48954;59.950;11.014;2023-01-31T00:32:57;98504.23;;;-2.05;54.91
62864;BME280;48954;59.950;11.014;2023-01-31T00:35:23;98503.99;;;-2.09;54.87
62864;BME280;48954;59.950;11.014;2023-01-31T00:37:49;98508.95;;;-2.11;54.93
62864;BME280;48954;59.950;11.014;2023-01-31T00:40:15;98506.34;;;-2.12;54.95
62864;BME280;48954;59.950;11.014;2023-01-31T00:42:40;98506.05;;;-2.13;55.26
62864;BME280;48954;59.950;11.014;2023-01-31T00:45:06;98505.05;;;-2.15;55.28
62864;BME280;48954;59.950;11.014;2023-01-31T00:47:32;98499.48;;;-2.18;55.05
62864;BME280;48954;59.950;11.014;2023-01-31T00:49:58;98500.33;;;-2.21;55.32
62864;BME280;48954;59.950;11.014;2023-01-31T00:52:24;98500.16;;;-2.23;55.55
62864;BME280;48954;59.950;11.014;2023-01-31T00:54:49;98499.38;;;-2.25;55.58
62864;BME280;48954;59.950;11.014;2023-01-31T00:57:15;98502.71;;;-2.27;55.82
62864;BME280;48954;59.950;11.014;2023-01-31T00:59:41;98509.08;;;-2.30;56.08
62864;BME280;48954;59.950;11.014;2023-01-31T01:02:06;98516.38;;;-2.35;56.31
62864;BME280;48954;59.950;11.014;2023-01-31T01:04:32;98528.45;;;-2.41;56.13
62864;BME280;48954;59.950;11.014;2023-01-31T01:06:58;98534.93;;;-2.46;56.22
62864;BME280;48954;59.950;11.014;2023-01-31T01:09:24;98542.70;;;-2.52;56.41
62864;BME280;48954;59.950;11.014;2023-01-31T01:11:50;98546.52;;;-2.59;56.47
62864;BME280;48954;59.950;11.014;2023-01-31T01:14:15;98545.77;;;-2.64;56.67
62864;BME280;48954;59.950;11.014;2023-01-31T01:16:41;98548.45;;;-2.69;57.12
62864;BME280;48954;59.950;11.014;2023-01-31T01:19:12;98553.50;;;-2.76;56.82
62864;BME280;48954;59.950;11.014;2023-01-31T01:21:38;98556.39;;;-2.80;57.08
62864;BME280;48954;59.950;11.014;2023-01-31T01:24:05;98552.61;;;-2.85;56.95
62864;BME280;48954;59.950;11.014;2023-01-31T01:26:33;98553.98;;;-2.88;57.15
62864;BME280;48954;59.950;11.014;2023-01-31T01:29:00;98548.97;;;-2.91;57.29
62864;BME280;48954;59.950;11.014;2023-01-31T01:31:27;98547.44;;;-2.93;57.37
62864;BME280;48954;59.950;11.014;2023-01-31T01:33:53;98539.73;;;-2.94;57.22
62864;BME280;48954;59.950;11.014;2023-01-31T01:36:18;98541.25;;;-2.93;57.41
62864;BME280;48954;59.950;11.014;2023-01-31T01:38:44;98534.49;;;-2.94;57.45
62864;BME280;48954;59.950;11.014;2023-01-31T01:41:11;98532.91;;;-2.95;57.29
62864;BME280;48954;59.950;11.014;2023-01-31T01:43:52;98537.55;;;-2.93;57.45
62864;BME280;48954;59.950;11.014;2023-01-31T01:49:00;98531.93;;;-2.86;57.74
62864;BME280;48954;59.950;11.014;2023-01-31T01:51:28;98525.39;;;-2.83;57.66
62864;BME280;48954;59.950;11.014;2023-01-31T01:53:59;98517.13;;;-2.81;57.71
62864;BME280;48954;59.950;11.014;2023-01-31T01:56:31;98515.66;;;-2.81;57.59
62864;BME280;48954;59.950;11.014;2023-01-31T01:59:11;98521.51;;;-2.82;57.65
62864;BME280;48954;59.950;11.014;2023-01-31T02:01:39;98530.95;;;-2.81;57.47
62864;BME280;48954;59.950;11.014;2023-01-31T02:04:07;98531.09;;;-2.80;58.04
62864;BME280;48954;59.950;11.014;2023-01-31T02:06:34;98532.79;;;-2.79;57.74
62864;BME280;48954;59.950;11.014;2023-01-31T02:09:02;98538.88;;;-2.80;57.63
62864;BME280;48954;59.950;11.014;2023-01-31T02:11:30;98543.85;;;-2.83;58.12
62864;BME280;48954;59.950;11.014;2023-01-31T02:14:06;98545.25;;;-2.87;57.91
62864;BME280;48954;59.950;11.014;2023-01-31T02:16:32;98543.42;;;-2.91;57.97
62864;BME280;48954;59.950;11.014;2023-01-31T02:18:58;98536.42;;;-2.93;58.18
62864;BME280;48954;59.950;11.014;2023-01-31T02:21:47;98536.48;;;-2.94;58.15
62864;BME280;48954;59.950;11.014;2023-01-31T02:24:33;98530.91;;;-2.95;58.32
62864;BME280;48954;59.950;11.014;2023-01-31T02:38:05;98536.58;;;-2.90;58.64
62864;BME280;48954;59.950;11.014;2023-01-31T02:46:06;98520.89;;;-2.89;58.50
62864;BME280;48954;59.950;11.014;2023-01-31T02:51:39;98533.42;;;-2.89;58.88
62864;BME280;48954;59.950;11.014;2023-01-31T02:54:20;98532.38;;;-2.90;58.85
62864;BME280;48954;59.950;11.014;2023-01-31T02:56:49;98527.80;;;-2.90;58.88
62864;BME280;48954;59.950;11.014;2023-01-31T02:59:20;98517.70;;;-2.91;59.00
62864;BME280;48954;59.950;11.014;2023-01-31T03:01:59;98518.42;;;-2.89;59.25
62864;BME280;48954;59.950;11.014;2023-01-31T03:04:32;98514.52;;;-2.85;58.99
62864;BME280;48954;59.950;11.014;2023-01-31T03:07:05;98516.86;;;-2.79;58.90
62864;BME280;48954;59.950;11.014;2023-01-31T03:09:36;98519.07;;;-2.74;59.06
62864;BME280;48954;59.950;11.014;2023-01-31T03:22:49;98513.61;;;-2.84;60.32
62864;BME280;48954;59.950;11.014;2023-01-31T03:25:18;98505.93;;;-2.85;60.24
62864;BME280;48954;59.950;11.014;2023-01-31T03:27:58;98508.90;;;-2.85;60.31
62864;BME280;48954;59.950;11.014;2023-01-31T03:30:34;98508.29;;;-2.85;60.15
62864;BME280;48954;59.950;11.014;2023-01-31T03:33:09;98510.09;;;-2.85;60.05
62864;BME280;48954;59.950;11.014;2023-01-31T03:35:39;98506.99;;;-2.84;60.13
62864;BME280;48954;59.950;11.014;2023-01-31T03:38:23;98510.20;;;-2.83;59.77
62864;BME280;48954;59.950;11.014;2023-01-31T03:41:11;98509.79;;;-2.80;59.84
62864;BME280;48954;59.950;11.014;2023-01-31T03:43:55;98513.84;;;-2.78;59.76
62864;BME280;48954;59.950;11.014;2023-01-31T03:46:31;98512.34;;;-2.76;59.48
62864;BME280;48954;59.950;11.014;2023-01-31T03:49:01;98510.11;;;-2.75;59.67
62864;BME280;48954;59.950;11.014;2023-01-31T03:51:31;98515.65;;;-2.75;59.60
62864;BME280;48954;59.950;11.014;2023-01-31T03:54:05;98514.48;;;-2.75;60.05
62864;BME280;48954;59.950;11.014;2023-01-31T03:56:45;98507.44;;;-2.76;60.22
62864;BME280;48954;59.950;11.014;2023-01-31T03:59:19;98500.76;;;-2.78;60.19
62864;BME280;48954;59.950;11.014;2023-01-31T04:01:50;98509.13;;;-2.80;60.23
62864;BME280;48954;59.950;11.014;2023-01-31T04:04:54;98512.45;;;-2.82;60.51
62864;BME280;48954;59.950;11.014;2023-01-31T04:07:18;98516.42;;;-2.84;59.90
62864;BME280;48954;59.950;11.014;2023-01-31T04:09:45;98513.41;;;-2.84;59.94
62864;BME280;48954;59.950;11.014;2023-01-31T04:12:13;98503.45;;;-2.84;59.64
62864;BME280;48954;59.950;11.014;2023-01-31T04:14:40;98493.48;;;-2.83;59.86
62864;BME280;48954;59.950;11.014;2023-01-31T04:17:06;98487.20;;;-2.81;59.58
62864;BME280;48954;59.950;11.014;2023-01-31T04:19:31;98492.66;;;-2.75;59.67
62864;BME280;48954;59.950;11.014;2023-01-31T04:21:57;98496.11;;;-2.66;59.38
62864;BME280;48954;59.950;11.014;2023-01-31T04:24:23;98492.50;;;-2.59;59.41
62864;BME280;48954;59.950;11.014;2023-01-31T04:26:49;98492.88;;;-2.56;59.27
62864;BME280;48954;59.950;11.014;2023-01-31T04:29:15;98485.16;;;-2.56;58.96
62864;BME280;48954;59.950;11.014;2023-01-31T04:31:41;98474.91;;;-2.54;59.22
62864;BME280;48954;59.950;11.014;2023-01-31T04:34:07;98477.45;;;-2.53;59.15
62864;BME280;48954;59.950;11.014;2023-01-31T04:36:32;98478.63;;;-2.52;59.07
62864;BME280;48954;59.950;11.014;2023-01-31T04:38:58;98478.55;;;-2.51;59.11
62864;BME280;48954;59.950;11.014;2023-01-31T04:41:24;98484.98;;;-2.49;59.12
62864;BME280;48954;59.950;11.014;2023-01-31T04:43:50;98480.92;;;-2.48;58.95
62864;BME280;48954;59.950;11.014;2023-01-31T04:46:16;98481.08;;;-2.46;59.28
62864;BME280;48954;59.950;11.014;2023-01-31T04:48:41;98482.80;;;-2.44;59.21
62864;BME280;48954;59.950;11.014;2023-01-31T04:51:08;98480.95;;;-2.43;58.98
62864;BME280;48954;59.950;11.014;2023-01-31T04:53:33;98481.36;;;-2.40;58.85
62864;BME280;48954;59.950;11.014;2023-01-31T04:55:59;98481.20;;;-2.37;58.69
62864;BME280;48954;59.950;11.014;2023-01-31T04:58:25;98483.90;;;-2.35;59.16
62864;BME280;48954;59.950;11.014;2023-01-31T05:00:52;98488.35;;;-2.34;58.76
62864;BME280;48954;59.950;11.014;2023-01-31T05:03:18;98478.53;;;-2.34;58.65
62864;BME280;48954;59.950;11.014;2023-01-31T05:05:47;98471.01;;;-2.33;59.39
62864;BME280;48954;59.950;11.014;2023-01-31T05:08:13;98471.05;;;-2.34;59.49
62864;BME280;48954;59.950;11.014;2023-01-31T05:10:39;98471.27;;;-2.36;59.54
62864;BME280;48954;59.950;11.014;2023-01-31T05:13:04;98470.16;;;-2.38;59.31
62864;BME280;48954;59.950;11.014;2023-01-31T05:15:30;98461.57;;;-2.39;59.42
62864;BME280;48954;59.950;11.014;2023-01-31T05:17:56;98459.16;;;-2.39;59.30
62864;BME280;48954;59.950;11.014;2023-01-31T05:20:22;98449.47;;;-2.39;59.29
62864;BME280;48954;59.950;11.014;2023-01-31T05:22:48;98448.02;;;-2.39;59.36
62864;BME280;48954;59.950;11.014;2023-01-31T05:25:14;98446.66;;;-2.41;59.27
62864;BME280;48954;59.950;11.014;2023-01-31T05:27:40;98441.99;;;-2.42;59.18
62864;BME280;48954;59.950;11.014;2023-01-31T05:30:06;98440.68;;;-2.44;58.97
62864;BME280;48954;59.950;11.014;2023-01-31T05:32:35;98438.89;;;-2.45;59.21
62864;BME280;48954;59.950;11.014;2023-01-31T05:35:01;98435.52;;;-2.46;59.11
62864;BME280;48954;59.950;11.014;2023-01-31T05:37:26;98433.29;;;-2.45;59.44
62864;BME280;48954;59.950;11.014;2023-01-31T05:39:52;98436.48;;;-2.46;59.47
62864;BME280;48954;59.950;11.014;2023-01-31T05:42:18;98438.52;;;-2.47;59.40
62864;BME280;48954;59.950;11.014;2023-01-31T05:44:44;98436.48;;;-2.49;59.43
62864;BME280;48954;59.950;11.014;2023-01-31T05:47:09;98429.30;;;-2.54;59.39
62864;BME280;48954;59.950;11.014;2023-01-31T05:49:35;98422.65;;;-2.58;59.01
62864;BME280;48954;59.950;11.014;2023-01-31T05:52:01;98417.42;;;-2.59;59.51
62864;BME280;48954;59.950;11.014;2023-01-31T05:54:27;98415.05;;;-2.61;59.15
62864;BME280;48954;59.950;11.014;2023-01-31T05:56:52;98410.64;;;-2.61;59.48
62864;BME280;48954;59.950;11.014;2023-01-31T05:59:18;98405.91;;;-2.62;59.26
62864;BME280;48954;59.950;11.014;2023-01-31T06:01:44;98401.14;;;-2.62;59.29
62864;BME280;48954;59.950;11.014;2023-01-31T06:04:10;98395.93;;;-2.63;59.41
62864;BME280;48954;59.950;11.014;2023-01-31T06:06:35;98395.80;;;-2.64;59.66
62864;BME280;48954;59.950;11.014;2023-01-31T06:09:01;98392.05;;;-2.65;59.44
62864;BME280;48954;59.950;11.014;2023-01-31T06:11:27;98382.36;;;-2.65;59.36
62864;BME280;48954;59.950;11.014;2023-01-31T06:13:53;98380.75;;;-2.65;59.72
62864;BME280;48954;59.950;11.014;2023-01-31T06:16:19;98377.71;;;-2.65;59.44
62864;BME280;48954;59.950;11.014;2023-01-31T06:18:44;98374.16;;;-2.64;59.46
62864;BME280;48954;59.950;11.014;2023-01-31T06:21:10;98367.73;;;-2.66;59.58
62864;BME280;48954;59.950;11.014;2023-01-31T06:23:36;98369.11;;;-2.67;59.85
62864;BME280;48954;59.950;11.014;2023-01-31T06:26:02;98361.73;;;-2.70;59.66
62864;BME280;48954;59.950;11.014;2023-01-31T06:28:28;98362.23;;;-2.72;59.74
62864;BME280;48954;59.950;11.014;2023-01-31T06:30:53;98357.02;;;-2.75;59.62
62864;BME280;48954;59.950;11.014;2023-01-31T06:33:19;98353.48;;;-2.79;59.72
62864;BME280;48954;59.950;11.014;2023-01-31T06:35:45;98345.11;;;-2.85;60.02
62864;BME280;48954;59.950;11.014;2023-01-31T06:38:11;98347.54;;;-2.92;60.42
62864;BME280;48954;59.950;11.014;2023-01-31T06:40:36;98345.08;;;-2.98;60.36
62864;BME280;48954;59.950;11.014;2023-01-31T06:43:02;98339.86;;;-3.02;60.72
62864;BME280;48954;59.950;11.014;2023-01-31T06:45:28;98336.48;;;-3.05;60.31
62864;BME280;48954;59.950;11.014;2023-01-31T06:47:54;98338.00;;;-3.05;60.38
62864;BME280;48954;59.950;11.014;2023-01-31T06:50:19;98332.13;;;-3.04;60.65
62864;BME280;48954;59.950;11.014;2023-01-31T06:52:45;98331.40;;;-3.04;60.23
62864;BME280;48954;59.950;11.014;2023-01-31T06:55:11;98330.32;;;-3.03;60.44
62864;BME280;48954;59.950;11.014;2023-01-31T06:57:45;98329.09;;;-3.03;60.41
62864;BME280;48954;59.950;11.014;2023-01-31T07:00:11;98326.73;;;-3.04;60.69
62864;BME280;48954;59.950;11.014;2023-01-31T07:02:37;98315.96;;;-3.06;60.45
62864;BME280;48954;59.950;11.014;2023-01-31T07:05:02;98318.48;;;-3.08;60.61
62864;BME280;48954;59.950;11.014;2023-01-31T07:07:28;98312.45;;;-3.12;60.66
62864;BME280;48954;59.950;11.014;2023-01-31T07:09:54;98315.05;;;-3.15;60.71
62864;BME280;48954;59.950;11.014;2023-01-31T07:12:20;98310.13;;;-3.19;60.99
62864;BME280;48954;59.950;11.014;2023-01-31T07:14:45;98305.80;;;-3.22;61.17
62864;BME280;48954;59.950;11.014;2023-01-31T07:17:11;98301.92;;;-3.25;60.84
62864;BME280;48954;59.950;11.014;2023-01-31T07:19:37;98296.80;;;-3.26;61.09
62864;BME280;48954;59.950;11.014;2023-01-31T07:22:03;98289.86;;;-3.28;61.09
62864;BME280;48954;59.950;11.014;2023-01-31T07:24:29;98282.46;;;-3.30;60.99
62864;BME280;48954;59.950;11.014;2023-01-31T07:26:54;98281.45;;;-3.31;61.11
62864;BME280;48954;59.950;11.014;2023-01-31T07:29:20;98277.28;;;-3.33;61.43
62864;BME280;48954;59.950;11.014;2023-01-31T07:31:46;98276.54;;;-3.34;61.14
62864;BME280;48954;59.950;11.014;2023-01-31T07:34:11;98273.23;;;-3.35;61.58
62864;BME280;48954;59.950;11.014;2023-01-31T07:36:37;98271.15;;;-3.36;61.08
62864;BME280;48954;59.950;11.014;2023-01-31T07:39:03;98263.20;;;-3.36;61.46
62864;BME280;48954;59.950;11.014;2023-01-31T07:41:29;98259.40;;;-3.37;61.56
62864;BME280;48954;59.950;11.014;2023-01-31T07:43:54;98257.48;;;-3.39;61.63
62864;BME280;48954;59.950;11.014;2023-01-31T07:46:20;98250.64;;;-3.41;61.71
62864;BME280;48954;59.950;11.014;2023-01-31T07:48:46;98249.91;;;-3.42;61.61
62864;BME280;48954;59.950;11.014;2023-01-31T07:51:11;98238.45;;;-3.44;61.48
62864;BME280;48954;59.950;11.014;2023-01-31T07:53:38;98237.13;;;-3.45;61.44
62864;BME280;48954;59.950;11.014;2023-01-31T07:56:14;98236.27;;;-3.45;61.60
62864;BME280;48954;59.950;11.014;2023-01-31T07:58:41;98227.21;;;-3.46;61.39
62864;BME280;48954;59.950;11.014;2023-01-31T08:01:12;98224.23;;;-3.47;61.73
62864;BME280;48954;59.950;11.014;2023-01-31T08:03:38;98218.36;;;-3.49;62.02
62864;BME280;48954;59.950;11.014;2023-01-31T08:06:09;98211.12;;;-3.51;62.07
62864;BME280;48954;59.950;11.014;2023-01-31T08:08:36;98202.70;;;-3.52;62.36
62864;BME280;48954;59.950;11.014;2023-01-31T08:11:03;98206.19;;;-3.52;62.49
62864;BME280;48954;59.950;11.014;2023-01-31T08:13:28;98207.10;;;-3.52;62.25
62864;BME280;48954;59.950;11.014;2023-01-31T08:15:54;98202.23;;;-3.53;62.64
62864;BME280;48954;59.950;11.014;2023-01-31T08:18:20;98199.06;;;-3.53;62.69
62864;BME280;48954;59.950;11.014;2023-01-31T08:20:46;98196.61;;;-3.54;62.19
62864;BME280;48954;59.950;11.014;2023-01-31T08:23:11;98198.02;;;-3.57;62.27
62864;BME280;48954;59.950;11.014;2023-01-31T08:25:37;98193.88;;;-3.57;62.68
62864;BME280;48954;59.950;11.014;2023-01-31T08:28:03;98187.33;;;-3.55;62.83
62864;BME280;48954;59.950;11.014;2023-01-31T08:30:29;98174.30;;;-3.54;62.53
62864;BME280;48954;59.950;11.014;2023-01-31T08:32:55;98171.33;;;-3.52;62.75
62864;BME280;48954;59.950;11.014;2023-01-31T08:35:21;98167.27;;;-3.48;62.69
62864;BME280;48954;59.950;11.014;2023-01-31T08:37:47;98170.98;;;-3.44;63.10
62864;BME280;48954;59.950;11.014;2023-01-31T08:40:13;98163.42;;;-3.38;63.11
62864;BME280;48954;59.950;11.014;2023-01-31T08:42:39;98161.84;;;-3.33;62.95
62864;BME280;48954;59.950;11.014;2023-01-31T08:45:05;98161.92;;;-3.27;63.02
62864;BME280;48954;59.950;11.014;2023-01-31T08:47:31;98152.20;;;-3.20;63.11
62864;BME280;48954;59.950;11.014;2023-01-31T08:49:57;98146.20;;;-3.14;63.13
62864;BME280;48954;59.950;11.014;2023-01-31T08:52:23;98150.66;;;-3.06;62.86
62864;BME280;48954;59.950;11.014;2023-01-31T08:54:49;98154.77;;;-2.99;62.60
62864;BME280;48954;59.950;11.014;2023-01-31T08:57:15;98156.52;;;-2.89;62.64
62864;BME280;48954;59.950;11.014;2023-01-31T08:59:40;98160.67;;;-2.82;62.23
62864;BME280;48954;59.950;11.014;2023-01-31T09:02:09;98153.59;;;-2.73;61.99
62864;BME280;48954;59.950;11.014;2023-01-31T09:04:35;98148.46;;;-2.65;62.27
62864;BME280;48954;59.950;11.014;2023-01-31T09:07:01;98148.55;;;-2.62;62.12
62864;BME280;48954;59.950;11.014;2023-01-31T09:09:26;98142.96;;;-2.57;62.02
62864;BME280;48954;59.950;11.014;2023-01-31T09:11:52;98133.71;;;-2.51;61.90
62864;BME280;48954;59.950;11.014;2023-01-31T09:14:18;98123.56;;;-2.44;61.69
62864;BME280;48954;59.950;11.014;2023-01-31T09:16:44;98122.32;;;-2.37;61.70
62864;BME280;48954;59.950;11.014;2023-01-31T09:19:09;98118.92;;;-2.32;61.45
62864;BME280;48954;59.950;11.014;2023-01-31T09:21:35;98118.20;;;-2.22;61.60
62864;BME280;48954;59.950;11.014;2023-01-31T09:24:01;98114.24;;;-2.01;61.19
62864;BME280;48954;59.950;11.014;2023-01-31T09:26:27;98114.48;;;-1.92;61.13
62864;BME280;48954;59.950;11.014;2023-01-31T09:28:53;98106.75;;;-1.81;60.84
62864;BME280;48954;59.950;11.014;2023-01-31T09:31:19;98099.32;;;-1.69;60.78
62864;BME280;48954;59.950;11.014;2023-01-31T09:33:46;98087.73;;;-1.65;60.55
62864;BME280;48954;59.950;11.014;2023-01-31T09:36:17;98084.95;;;-1.60;60.44
62864;BME280;48954;59.950;11.014;2023-01-31T09:38:43;98075.29;;;-1.55;60.29
62864;BME280;48954;59.950;11.014;2023-01-31T09:43:57;98075.67;;;-1.42;60.09
62864;BME280;48954;59.950;11.014;2023-01-31T09:46:28;98066.71;;;-1.41;59.94
62864;BME280;48954;59.950;11.014;2023-01-31T09:48:56;98058.67;;;-1.38;59.80
62864;BME280;48954;59.950;11.014;2023-01-31T09:51:23;98051.54;;;-1.25;59.67
62864;BME280;48954;59.950;11.014;2023-01-31T09:53:49;98044.55;;;-1.09;59.89
62864;BME280;48954;59.950;11.014;2023-01-31T09:56:56;98043.32;;;-0.97;59.75
62864;BME280;48954;59.950;11.014;2023-01-31T09:59:29;98035.83;;;-0.78;59.60
62864;BME280;48954;59.950;11.014;2023-01-31T10:05:03;98026.77;;;-0.50;60.09
62864;BME280;48954;59.950;11.014;2023-01-31T10:07:41;98022.43;;;-0.41;59.74
62864;BME280;48954;59.950;11.014;2023-01-31T10:13:03;98015.07;;;-0.23;59.29
62864;BME280;48954;59.950;11.014;2023-01-31T10:15:51;98008.09;;;-0.04;58.89
62864;BME280;48954;59.950;11.014;2023-01-31T10:18:25;98009.45;;;0.04;58.59
62864;BME280;48954;59.950;11.014;2023-01-31T10:21:00;98013.84;;;0.04;58.20
62864;BME280;48954;59.950;11.014;2023-01-31T10:23:27;98005.91;;;0.02;58.20
62864;BME280;48954;59.950;11.014;2023-01-31T10:26:00;97997.42;;;-0.00;58.46
62864;BME280;48954;59.950;11.014;2023-01-31T10:28:33;97997.80;;;0.02;58.27
62864;BME280;48954;59.950;11.014;2023-01-31T10:34:10;97983.45;;;0.03;58.13
62864;BME280;48954;59.950;11.014;2023-01-31T10:36:43;97983.32;;;0.07;58.28
62864;BME280;48954;59.950;11.014;2023-01-31T10:42:04;97971.11;;;0.11;58.50
62864;BME280;48954;59.950;11.014;2023-01-31T10:44:54;97963.19;;;0.13;58.31
62864;BME280;48954;59.950;11.014;2023-01-31T10:47:31;97958.74;;;0.14;58.32
62864;BME280;48954;59.950;11.014;2023-01-31T10:49:57;97946.77;;;0.18;58.05
62864;BME280;48954;59.950;11.014;2023-01-31T10:56:15;97947.37;;;0.60;57.81
62864;BME280;48954;59.950;11.014;2023-01-31T10:58:12;97932.52;;;1.74;57.27
62864;BME280;48954;59.950;11.014;2023-01-31T11:00:38;97920.52;;;2.87;55.99
62864;BME280;48954;59.950;11.014;2023-01-31T11:03:04;97919.54;;;3.27;55.37
62864;BME280;48954;59.950;11.014;2023-01-31T11:05:30;97914.45;;;3.86;54.72
62864;BME280;48954;59.950;11.014;2023-01-31T11:07:58;97911.86;;;4.39;54.24
62864;BME280;48954;59.950;11.014;2023-01-31T11:10:30;97903.16;;;4.49;53.26
62864;BME280;48954;59.950;11.014;2023-01-31T11:12:59;97896.48;;;4.18;53.33
62864;BME280;48954;59.950;11.014;2023-01-31T11:15:27;97895.67;;;3.63;52.70
62864;BME280;48954;59.950;11.014;2023-01-31T11:18:00;97890.58;;;3.19;53.03
62864;BME280;48954;59.950;11.014;2023-01-31T11:20:33;97882.41;;;2.89;53.38
62864;BME280;48954;59.950;11.014;2023-01-31T11:23:00;97877.42;;;2.61;53.16
62864;BME280;48954;59.950;11.014;2023-01-31T11:25:30;97870.30;;;2.36;53.38
62864;BME280;48954;59.950;11.014;2023-01-31T11:27:59;97858.92;;;2.17;53.64
62864;BME280;48954;59.950;11.014;2023-01-31T11:30:29;97848.79;;;2.06;53.88
62864;BME280;48954;59.950;11.014;2023-01-31T11:32:56;97840.51;;;1.97;53.66
62864;BME280;48954;59.950;11.014;2023-01-31T11:35:30;97837.14;;;1.92;53.49
62864;BME280;48954;59.950;11.014;2023-01-31T11:38:01;97831.31;;;1.94;53.24
62864;BME280;48954;59.950;11.014;2023-01-31T11:40:36;97819.55;;;2.04;52.99
62864;BME280;48954;59.950;11.014;2023-01-31T11:43:05;97811.58;;;2.08;52.86
62864;BME280;48954;59.950;11.014;2023-01-31T11:45:33;97805.55;;;1.99;52.97
62864;BME280;48954;59.950;11.014;2023-01-31T11:48:16;97800.63;;;1.94;53.08
62864;BME280;48954;59.950;11.014;2023-01-31T11:50:52;97799.06;;;1.85;52.90
62864;BME280;48954;59.950;11.014;2023-01-31T11:53:21;97805.52;;;1.73;52.99
62864;BME280;48954;59.950;11.014;2023-01-31T11:55:50;97808.28;;;1.63;52.71
62864;BME280;48954;59.950;11.014;2023-01-31T11:58:36;97802.42;;;1.59;52.85
62864;BME280;48954;59.950;11.014;2023-01-31T12:01:11;97788.55;;;1.58;53.05
62864;BME280;48954;59.950;11.014;2023-01-31T12:03:39;97778.07;;;1.63;53.47
62864;BME280;48954;59.950;11.014;2023-01-31T12:06:31;97769.51;;;1.73;53.46
62864;BME280;48954;59.950;11.014;2023-01-31T12:08:59;97751.33;;;1.86;53.50
62864;BME280;48954;59.950;11.014;2023-01-31T12:11:28;97743.25;;;1.94;53.49
62864;BME280;48954;59.950;11.014;2023-01-31T12:14:15;97741.52;;;2.00;53.27
62864;BME280;48954;59.950;11.014;2023-01-31T12:16:46;97732.80;;;2.05;52.82
62864;BME280;48954;59.950;11.014;2023-01-31T12:27:50;97711.20;;;2.34;52.78
62864;BME280;48954;59.950;11.014;2023-01-31T12:30:32;97719.08;;;2.36;52.67
62864;BME280;48954;59.950;11.014;2023-01-31T12:33:25;97728.54;;;2.32;52.52
62864;BME280;48954;59.950;11.014;2023-01-31T12:44:48;97694.70;;;2.06;52.45
62864;BME280;48954;59.950;11.014;2023-01-31T13:01:00;97650.73;;;1.62;53.33
62864;BME280;48954;59.950;11.014;2023-01-31T13:03:59;97643.40;;;1.48;53.65
62864;BME280;48954;59.950;11.014;2023-01-31T13:06:35;97646.49;;;1.32;54.08
62864;BME280;48954;59.950;11.014;2023-01-31T13:09:12;97646.41;;;1.19;54.63
62864;BME280;48954;59.950;11.014;2023-01-31T13:12:12;97644.88;;;1.01;55.97
62864;BME280;48954;59.950;11.014;2023-01-31T13:14:43;97650.67;;;0.72;57.55
62864;BME280;48954;59.950;11.014;2023-01-31T13:17:13;97654.45;;;0.47;59.09
62864;BME280;48954;59.950;11.014;2023-01-31T13:20:02;97645.96;;;0.30;59.99
62864;BME280;48954;59.950;11.014;2023-01-31T13:22:48;97644.03;;;0.25;60.75
62864;BME280;48954;59.950;11.014;2023-01-31T13:25:21;97637.66;;;0.23;61.20
62864;BME280;48954;59.950;11.014;2023-01-31T13:27:56;97636.55;;;0.18;61.78
62864;BME280;48954;59.950;11.014;2023-01-31T13:30:39;97636.04;;;0.05;62.14
62864;BME280;48954;59.950;11.014;2023-01-31T13:33:35;97632.46;;;-0.07;62.54
62864;BME280;48954;59.950;11.014;2023-01-31T13:36:16;97623.88;;;-0.15;63.08
62864;BME280;48954;59.950;11.014;2023-01-31T13:38:44;97610.28;;;-0.20;63.34
62864;BME280;48954;59.950;11.014;2023-01-31T13:41:37;97598.66;;;-0.23;63.80
62864;BME280;48954;59.950;11.014;2023-01-31T13:44:03;97592.04;;;-0.26;63.93
62864;BME280;48954;59.950;11.014;2023-01-31T13:46:37;97589.94;;;-0.27;64.31
62864;BME280;48954;59.950;11.014;2023-01-31T13:49:14;97584.04;;;-0.28;64.56
62864;BME280;48954;59.950;11.014;2023-01-31T13:51:50;97577.58;;;-0.32;64.59
62864;BME280;48954;59.950;11.014;2023-01-31T13:54:30;97574.30;;;-0.39;64.79
62864;BME280;48954;59.950;11.014;2023-01-31T13:56:58;97569.84;;;-0.41;65.18
62864;BME280;48954;59.950;11.014;2023-01-31T13:59:31;97567.67;;;-0.44;65.60
62864;BME280;48954;59.950;11.014;2023-01-31T14:02:00;97566.48;;;-0.45;65.72
62864;BME280;48954;59.950;11.014;2023-01-31T14:04:29;97564.16;;;-0.47;65.79
62864;BME280;48954;59.950;11.014;2023-01-31T14:09:35;97556.33;;;-0.61;65.98
62864;BME280;48954;59.950;11.014;2023-01-31T14:14:43;97543.91;;;-0.74;66.62
62864;BME280;48954;59.950;11.014;2023-01-31T14:17:12;97544.05;;;-0.77;66.84
62864;BME280;48954;59.950;11.014;2023-01-31T14:22:37;97546.80;;;-0.78;67.53
62864;BME280;48954;59.950;11.014;2023-01-31T14:30:33;97534.17;;;-0.82;67.72
62864;BME280;48954;59.950;11.014;2023-01-31T14:44:36;97514.25;;;-0.95;69.09
62864;BME280;48954;59.950;11.014;2023-01-31T14:50:22;97492.92;;;-1.01;69.43
62864;BME280;48954;59.950;11.014;2023-01-31T14:55:53;97477.99;;;-1.09;69.59
62864;BME280;48954;59.950;11.014;2023-01-31T14:58:24;97474.40;;;-1.13;69.80
62864;BME280;48954;59.950;11.014;2023-01-31T15:00:54;97469.84;;;-1.16;70.11